Time;durP1;ratioP1;P1;durP2;ratioP2;P2;SDS_P1;SDS_P2;PMS_P1;PMS_P2;Temp;Humidity;BMP_temperature;BMP_pressure;BME280_temperature;BME280_humidity;BME280_pressure;Samples;Min_cycle;Max_cycle;Signal;HPM_P1;HPM_P2
2023/09/13 00:03:34;;;;;;;2.60;2.40;;;;;;;22.44;61.97;96568.75;10408420;28;20039;-26
2023/09/13 00:08:34;;;;;;;3.20;2.33;;;;;;;22.44;61.85;96576.41;10413486;28;20060;-26
2023/09/13 00:13:35;;;;;;;2.40;2.20;;;;;;;22.44;61.82;96573.88;10408319;28;20124;-26
2023/09/13 00:18:35;;;;;;;2.30;2.10;;;;;;;22.44;61.82;96578.97;10408760;28;20030;-26
2023/09/13 00:23:35;;;;;;;2.23;2.00;;;;;;;22.43;61.71;96568.78;10413102;28;20107;-26
2023/09/13 00:28:36;;;;;;;2.10;1.90;;;;;;;22.40;61.77;96569.63;10411025;28;20071;-26
2023/09/13 00:33:36;;;;;;;2.07;1.97;;;;;;;22.44;61.81;96571.31;10408058;28;20061;-27
2023/09/13 00:38:37;;;;;;;1.70;1.60;;;;;;;22.43;61.70;96568.78;10408098;28;20033;-26
2023/09/13 00:43:37;;;;;;;3.60;1.90;;;;;;;22.43;61.67;96576.44;10411919;28;20034;-26
2023/09/13 00:48:38;;;;;;;2.10;1.90;;;;;;;22.43;61.61;96584.94;10421620;28;20038;-26
2023/09/13 00:53:39;;;;;;;2.70;2.50;;;;;;;22.43;61.63;96595.16;10420993;28;20067;-26
2023/09/13 00:58:40;;;;;;;1.67;1.50;;;;;;;22.43;61.69;96609.59;10424021;28;20049;-29
2023/09/13 01:03:42;;;;;;;2.13;1.92;;;;;;;22.43;61.66;96614.69;10436948;28;20064;-26
2023/09/13 01:08:43;;;;;;;1.60;1.50;;;;;;;22.42;61.79;96606.22;10419756;28;20515;-25
2023/09/13 01:13:43;;;;;;;1.90;1.80;;;;;;;22.42;61.66;96585.81;10413547;28;20080;-26
2023/09/13 01:19:10;;;;;;;1.87;1.70;;;;;;;22.42;61.50;96582.41;10415320;28;20035;-26
2023/09/13 01:24:16;;;;;;;;;;;;;;;22.42;61.66;96588.38;10413466;28;20128;-27
2023/09/13 01:29:19;;;;;;;1.90;1.80;;;;;;;22.41;61.58;96581.56;10420277;28;19928;-27
2023/09/13 01:34:20;;;;;;;1.90;1.80;;;;;;;22.40;61.68;96569.63;10426143;28;20056;-26
2023/09/13 01:39:20;;;;;;;2.57;1.63;;;;;;;22.40;61.50;96564.53;10415512;28;20033;-26
2023/09/13 01:44:21;;;;;;;2.30;2.10;;;;;;;22.41;61.57;96562.88;10430264;28;20074;-26
2023/09/13 01:49:22;;;;;;;1.92;1.80;;;;;;;22.41;61.51;96571.34;10432762;28;20029;-26
2023/09/13 01:54:23;;;;;;;1.55;1.45;;;;;;;22.34;61.63;96556.16;10415686;28;20116;-26
2023/09/13 01:59:23;;;;;;;1.63;1.53;;;;;;;22.31;61.59;96548.56;10438861;28;20025;-26
2023/09/13 02:04:24;;;;;;;1.83;1.73;;;;;;;22.41;61.46;96562.88;10440422;28;20518;-26
2023/09/13 02:09:24;;;;;;;1.42;1.33;;;;;;;22.42;60.98;96567.09;10427800;28;20482;-27
2023/09/13 02:14:25;;;;;;;1.50;1.40;;;;;;;22.42;61.45;96562.00;10416307;28;20041;-26
2023/09/13 02:19:25;;;;;;;1.67;1.57;;;;;;;22.42;61.52;96579.84;10429993;28;20021;-26
2023/09/13 02:24:26;;;;;;;1.50;1.40;;;;;;;22.42;61.38;96587.50;10422815;28;20033;-26
2023/09/13 02:29:26;;;;;;;1.70;1.42;;;;;;;22.41;61.46;96580.72;10428484;28;20037;-26
2023/09/13 02:34:26;;;;;;;1.83;1.60;;;;;;;22.40;61.47;96584.13;10412080;28;20037;-26
2023/09/13 02:39:38;;;;;;;1.40;1.30;;;;;;;22.40;61.36;96584.94;10429399;28;20022;-26
2023/09/13 02:44:39;;;;;;;1.40;1.30;;;;;;;22.39;61.29;96593.47;10435071;28;20720;-26
2023/09/13 02:49:39;;;;;;;1.52;1.42;;;;;;;22.36;61.36;96596.09;10430160;28;20033;-26
2023/09/13 02:54:40;;;;;;;1.03;1.03;;;;;;;22.40;61.39;96613.00;10429312;28;20041;-26
2023/09/13 02:59:40;;;;;;;1.47;1.37;;;;;;;22.39;61.29;96613.88;10436268;28;20319;-26
2023/09/13 03:04:40;;;;;;;3.45;1.40;;;;;;;22.37;61.33;96599.44;10427087;28;20037;-26
2023/09/13 03:09:41;;;;;;;1.88;1.73;;;;;;;22.40;61.22;96589.22;10424194;28;20034;-26
2023/09/13 03:14:41;;;;;;;1.50;1.40;;;;;;;22.40;61.32;96591.78;10426582;28;20033;-26
2023/09/13 03:19:42;;;;;;;1.48;1.38;;;;;;;22.41;61.27;96606.22;10421587;28;20028;-26
2023/09/13 03:24:42;;;;;;;1.60;1.50;;;;;;;22.40;61.28;96592.59;10423371;28;20102;-26
2023/09/13 03:29:43;;;;;;;0.90;0.90;;;;;;;22.40;61.22;96590.03;10433509;28;20032;-26
2023/09/13 03:34:46;;;;;;;1.25;1.15;;;;;;;22.39;61.43;96588.38;10415208;28;20037;-26
2023/09/13 03:39:47;;;;;;;1.10;1.00;;;;;;;22.39;61.23;96567.94;10410251;28;20078;-26
2023/09/13 03:44:47;;;;;;;1.20;1.10;;;;;;;22.39;61.20;96567.94;10427937;28;20086;-26
2023/09/13 03:49:48;;;;;;;1.30;1.20;;;;;;;22.39;61.22;96557.75;10436874;28;20117;-26
2023/09/13 03:54:49;;;;;;;1.33;1.23;;;;;;;22.41;61.19;96560.31;10424738;28;20726;-26
2023/09/13 03:59:50;;;;;;;1.40;1.30;;;;;;;22.40;61.09;96572.19;10429089;28;20670;-26
2023/09/13 04:04:50;;;;;;;2.20;1.30;;;;;;;22.39;61.12;96570.50;10417547;28;20029;-26
2023/09/13 04:09:52;;;;;;;1.40;1.30;;;;;;;22.38;61.31;96566.28;10426479;28;20033;-27
2023/09/13 04:14:52;;;;;;;1.45;1.35;;;;;;;22.38;61.19;96566.28;10427952;28;20502;-27
2023/09/13 04:19:53;;;;;;;1.53;1.43;;;;;;;22.39;61.14;96567.13;10432704;28;20028;-26
2023/09/13 04:24:53;;;;;;;1.10;1.03;;;;;;;22.39;61.13;96569.69;10429110;28;20292;-26
2023/09/13 04:29:56;;;;;;;1.07;1.07;;;;;;;22.37;61.03;96567.16;10421031;28;20776;-27
2023/09/13 04:34:57;;;;;;;2.40;1.15;;;;;;;22.38;61.21;96571.38;10428401;28;20291;-27
2023/09/13 04:39:58;;;;;;;1.20;1.10;;;;;;;22.39;61.09;96575.59;10434558;28;20124;-27
2023/09/13 04:44:58;;;;;;;1.40;1.30;;;;;;;22.39;61.03;96567.13;10430447;28;20040;-26
2023/09/13 04:49:59;;;;;;;2.70;2.05;;;;;;;22.45;61.08;96583.19;10438207;28;20495;-26
2023/09/13 04:54:59;;;;;;;3.40;2.33;;;;;;;22.47;61.65;96584.00;10439779;28;20045;-26
2023/09/13 05:00:00;;;;;;;2.20;2.00;;;;;;;22.48;61.65;96583.13;10434409;28;20098;-27
2023/09/13 05:05:01;;;;;;;3.35;2.17;;;;;;;22.47;61.18;96586.56;10426781;28;20517;-27
2023/09/13 05:10:01;;;;;;;5.00;3.13;;;;;;;22.90;65.66;96600.19;10419048;28;20033;-27
2023/09/13 05:15:02;;;;;;;4.43;2.92;;;;;;;22.95;63.49;96615.44;10423084;28;20041;-26
2023/09/13 05:20:03;;;;;;;4.00;2.45;;;;;;;22.89;63.10;96611.28;10422542;28;20034;-26
2023/09/13 05:25:04;;;;;;;4.70;3.40;;;;;;;22.80;63.26;96615.72;10434420;28;20063;-26
2023/09/13 05:30:05;;;;;;;10.32;3.28;;;;;;;22.52;63.80;96620.50;10421305;28;20038;-26
2023/09/13 05:35:05;;;;;;;3.83;2.50;;;;;;;22.41;62.43;96632.56;10437407;28;20119;-26
2023/09/13 05:40:06;;;;;;;4.30;2.65;;;;;;;22.46;62.63;96635.91;10412589;28;20128;-26
2023/09/13 05:45:08;;;;;;;5.38;3.85;;;;;;;22.48;62.60;96636.72;10425273;28;20040;-26
2023/09/13 05:50:08;;;;;;;5.65;3.20;;;;;;;22.49;62.49;96640.13;10421049;28;20061;-26
2023/09/13 05:55:11;;;;;;;4.90;3.33;;;;;;;22.46;63.25;96635.91;10418590;28;20053;-26
2023/09/13 06:00:12;;;;;;;3.97;3.10;;;;;;;22.45;62.99;96638.47;10413863;28;20116;-26
2023/09/13 06:05:13;;;;;;;6.47;3.63;;;;;;;22.54;64.55;96653.63;10427239;28;20052;-27
2023/09/13 06:10:13;;;;;;;3.50;3.17;;;;;;;22.78;64.16;96654.06;10420692;28;20446;-26
2023/09/13 06:15:14;;;;;;;6.25;3.88;;;;;;;22.68;64.04;96639.78;10424312;28;20033;-26
2023/09/13 06:20:14;;;;;;;6.53;3.73;;;;;;;22.56;64.71;96647.63;10416606;28;20038;-26
2023/09/13 06:25:17;;;;;;;7.55;3.42;;;;;;;22.68;64.76;96650.00;10417886;28;20033;-26
2023/09/13 06:30:17;;;;;;;4.45;3.40;;;;;;;22.18;65.61;96646.53;10420260;28;20059;-26
2023/09/13 06:35:17;;;;;;;4.93;3.57;;;;;;;22.04;66.10;96656.97;10420171;28;20120;-27
2023/09/13 06:40:18;;;;;;;5.33;3.70;;;;;;;21.94;66.53;96650.31;10423355;28;20642;-26
2023/09/13 06:45:18;;;;;;;9.77;3.67;;;;;;;21.92;66.27;96657.16;10418808;28;20040;-26
2023/09/13 06:50:18;;;;;;;4.57;3.50;;;;;;;22.14;64.67;96661.03;10422545;28;20296;-26
2023/09/13 06:55:19;;;;;;;5.17;3.07;;;;;;;22.23;63.99;96668.56;10425231;28;20091;-26
2023/09/13 07:00:20;;;;;;;5.75;2.88;;;;;;;22.25;63.69;96661.75;10417654;28;20040;-26
2023/09/13 07:05:20;;;;;;;5.60;3.27;;;;;;;22.29;63.50;96680.38;10416111;28;20040;-26
2023/09/13 07:10:20;;;;;;;3.97;2.40;;;;;;;22.30;63.32;96688.00;10410211;28;20041;-26
2023/09/13 07:15:21;;;;;;;5.73;3.83;;;;;;;22.32;63.10;96688.81;10415496;28;20037;-26
2023/09/13 07:20:21;;;;;;;2.90;2.60;;;;;;;22.32;62.75;96686.25;10416371;28;20034;-26
2023/09/13 07:25:22;;;;;;;5.10;3.10;;;;;;;22.32;62.89;96683.72;10415775;28;20033;-26
2023/09/13 07:30:23;;;;;;;3.43;2.53;;;;;;;22.33;62.81;96690.50;10425158;28;20295;-26
2023/09/13 07:35:23;;;;;;;3.78;2.88;;;;;;;22.33;62.78;96693.03;10420199;28;20095;-26
2023/09/13 07:40:24;;;;;;;3.03;2.73;;;;;;;22.34;62.64;96701.56;10409090;28;20099;-26
2023/09/13 07:45:24;;;;;;;2.90;2.40;;;;;;;22.34;62.56;96704.09;10409866;28;20045;-26
2023/09/13 07:50:40;;;;;;;2.30;2.10;;;;;;;22.34;62.40;96716.84;10407695;28;20040;-26
2023/09/13 07:55:41;;;;;;;2.75;2.55;;;;;;;22.34;62.54;96717.72;10430758;28;20041;-26
2023/09/13 08:00:43;;;;;;;2.60;2.40;;;;;;;22.35;62.41;96723.66;10414175;28;20041;-26
2023/09/13 08:05:46;;;;;;;3.28;2.60;;;;;;;22.34;62.23;96725.38;10408334;28;20121;-26
2023/09/13 08:10:46;;;;;;;2.88;2.25;;;;;;;22.34;62.25;96735.56;10416554;28;20034;-26
2023/09/13 08:15:50;;;;;;;4.18;2.05;;;;;;;22.36;62.32;96730.44;10415557;28;20503;-26
2023/09/13 08:20:51;;;;;;;4.40;2.55;;;;;;;22.35;62.21;96733.84;10416826;28;20518;-26
2023/09/13 08:25:51;;;;;;;2.13;1.93;;;;;;;22.34;62.14;96735.56;10416343;28;20048;-26
2023/09/13 08:30:52;;;;;;;1.93;1.77;;;;;;;22.34;62.14;96732.16;10411302;28;20734;-26
2023/09/13 08:35:52;;;;;;;2.13;1.88;;;;;;;22.35;62.12;96734.72;10418930;28;20284;-26
2023/09/13 08:40:54;;;;;;;3.80;2.10;;;;;;;22.34;62.00;96748.31;10407821;28;20032;-26
2023/09/13 08:45:56;;;;;;;2.20;2.00;;;;;;;22.35;62.17;96749.16;10417625;28;20120;-29
2023/09/13 08:50:56;;;;;;;2.60;1.98;;;;;;;22.36;61.90;96755.94;10415136;28;20038;-27
2023/09/13 08:55:59;;;;;;;2.10;1.95;;;;;;;22.35;61.85;96759.34;10418110;28;20033;-26
2023/09/13 09:01:03;;;;;;;3.15;2.50;;;;;;;22.35;61.77;96762.75;10427155;28;20025;-26
2023/09/13 09:06:06;;;;;;;2.70;2.40;;;;;;;22.35;62.02;96765.31;10426106;28;20033;-26
2023/09/13 09:11:07;;;;;;;3.08;2.75;;;;;;;22.36;61.73;96767.00;10415421;28;20036;-26
2023/09/13 09:16:09;;;;;;;2.13;1.83;;;;;;;22.36;61.90;96768.69;10419194;28;20064;-26
2023/09/13 09:21:10;;;;;;;4.22;2.67;;;;;;;22.34;61.99;96761.09;10418614;28;20040;-26
2023/09/13 09:26:11;;;;;;;2.80;2.60;;;;;;;22.35;62.05;96765.31;10414067;28;20492;-26
2023/09/13 09:31:16;;;;;;;6.65;2.53;;;;;;;22.36;61.79;96774.66;10417160;28;20088;-26
2023/09/13 09:36:23;;;;;;;2.42;2.10;;;;;;;22.37;61.90;96778.03;10418677;28;20128;-26
2023/09/13 09:41:31;;;;;;;2.60;2.40;;;;;;;22.38;61.93;96769.50;10423546;28;20029;-26
2023/09/13 09:46:32;;;;;;;2.67;2.47;;;;;;;22.38;61.83;96783.13;10427073;28;20419;-26
2023/09/13 09:51:33;;;;;;;2.85;2.38;;;;;;;22.38;61.78;96785.66;10434163;28;20041;-26
2023/09/13 09:56:33;;;;;;;6.63;3.07;;;;;;;22.40;61.80;96778.81;10426541;28;20037;-26
2023/09/13 10:01:37;;;;;;;2.60;2.40;;;;;;;22.39;62.02;96776.31;10419764;28;20299;-27
2023/09/13 10:06:56;;;;;;;2.67;2.47;;;;;;;22.35;63.30;96790.81;10423830;28;20052;-26
2023/09/13 10:11:57;;;;;;;3.88;2.30;;;;;;;22.44;63.00;96779.66;10429789;28;20029;-26
2023/09/13 10:16:59;;;;;;;8.70;4.28;;;;;;;22.45;62.27;96779.66;10423172;28;20390;-26
2023/09/13 10:22:00;;;;;;;3.80;2.88;;;;;;;22.50;62.75;96787.25;10435752;28;20101;-26
2023/09/13 10:27:10;;;;;;;2.55;1.65;;;;;;;22.49;62.76;96778.72;10411134;28;20033;-26
2023/09/13 10:32:14;;;;;;;6.75;3.47;;;;;;;22.53;63.26;96785.50;10416514;28;20488;-26
2023/09/13 10:37:50;;;;;;;14.15;7.75;;;;;;;22.64;64.92;96788.72;10424375;28;20025;-26
2023/09/13 10:42:52;;;;;;;6.95;4.00;;;;;;;22.58;63.38;96783.69;10422722;28;20147;-26
2023/09/13 10:47:55;;;;;;;6.40;3.22;;;;;;;22.53;63.24;96785.50;10410579;28;20064;-26
2023/09/13 10:52:59;;;;;;;7.40;2.00;;;;;;;22.67;63.64;96782.72;10417327;28;20036;-26
2023/09/13 10:58:02;;;;;;;6.72;2.40;;;;;;;22.65;63.73;96785.28;10420806;28;20056;-26
2023/09/13 11:03:04;;;;;;;6.07;1.98;;;;;;;22.60;62.79;96791.34;10422195;28;20036;-27
2023/09/13 11:08:08;;;;;;;3.20;2.08;;;;;;;22.54;62.30;96791.41;10424427;28;20512;-26
2023/09/13 11:13:12;;;;;;;3.50;1.75;;;;;;;22.62;63.58;96792.16;10412488;28;20041;-26
2023/09/13 11:18:14;;;;;;;2.97;1.90;;;;;;;22.56;63.31;96795.63;10421084;28;20036;-26
2023/09/13 11:23:18;;;;;;;2.13;1.92;;;;;;;22.54;63.11;96792.28;10430951;28;20025;-26
2023/09/13 11:28:39;;;;;;;4.55;2.25;;;;;;;22.58;63.68;96795.63;10409402;28;20121;-26
2023/09/13 11:33:51;;;;;;;4.85;2.25;;;;;;;22.59;64.92;96795.59;10405066;28;20061;-26
2023/09/13 11:38:53;;;;;;;3.92;1.95;;;;;;;22.52;63.67;96804.22;10426787;28;20024;-26
2023/09/13 11:43:53;;;;;;;13.82;3.22;;;;;;;22.55;64.33;96809.25;10421280;28;20029;-27
2023/09/13 11:48:57;;;;;;;3.30;2.07;;;;;;;22.77;63.82;96809.78;10412248;28;20044;-25
2023/09/13 11:54:13;;;;;;;2.95;1.63;;;;;;;22.81;64.10;96807.16;10414298;28;20037;-26
2023/09/13 11:59:13;;;;;;;2.38;1.80;;;;;;;22.67;64.05;96800.59;10417163;28;20073;-26
2023/09/13 12:04:14;;;;;;;5.30;1.98;;;;;;;22.66;64.07;96804.84;10424464;28;20037;-26
2023/09/13 12:09:17;;;;;;;6.28;2.13;;;;;;;22.60;62.99;96799.00;10415005;28;20410;-26
2023/09/13 12:14:23;;;;;;;8.18;2.60;;;;;;;22.58;62.85;96796.44;10423653;28;20452;-26
2023/09/13 12:19:25;;;;;;;6.40;1.83;;;;;;;22.66;63.49;96793.81;10413518;28;20017;-26
2023/09/13 12:24:26;;;;;;;9.75;3.08;;;;;;;22.64;62.40;96795.53;10416289;28;20099;-26
2023/09/13 12:29:26;;;;;;;4.50;3.10;;;;;;;22.62;62.89;96795.56;10408096;28;20094;-26
2023/09/13 12:34:27;;;;;;;9.17;4.00;;;;;;;22.62;62.81;96803.22;10416694;28;20376;-26
2023/09/13 12:39:27;;;;;;;7.22;4.75;;;;;;;22.54;62.66;96797.38;10416544;28;20037;-26
2023/09/13 12:44:28;;;;;;;7.77;4.00;;;;;;;22.62;63.74;96825.31;10425319;28;20040;-26
2023/09/13 12:49:28;;;;;;;7.80;3.20;;;;;;;22.68;65.30;96828.66;10422720;28;20033;-26
2023/09/13 12:54:29;;;;;;;3.92;2.20;;;;;;;22.69;66.44;96843.09;10423675;28;20116;-27
2023/09/13 12:59:46;;;;;;;4.45;2.83;;;;;;;22.63;67.24;96844.88;10415181;28;20541;-26
2023/09/13 13:04:47;;;;;;;2.75;2.33;;;;;;;22.63;67.75;96838.06;10421626;28;20037;-26
2023/09/13 13:09:52;;;;;;;5.50;2.30;;;;;;;22.60;68.00;96833.03;10415112;28;20041;-26
2023/09/13 13:14:52;;;;;;;6.70;2.97;;;;;;;22.53;66.68;96836.53;10422272;28;20041;-26
2023/09/13 13:19:53;;;;;;;4.83;2.37;;;;;;;22.58;68.32;96837.28;10418680;28;20048;-28
2023/09/13 13:24:53;;;;;;;3.65;2.75;;;;;;;22.56;67.87;96828.81;10421688;28;20287;-27
2023/09/13 13:29:54;;;;;;;6.53;3.92;;;;;;;22.54;67.82;96833.09;10422468;28;20041;-26
2023/09/13 13:34:56;;;;;;;4.55;2.60;;;;;;;22.53;67.47;96833.97;10419467;28;20075;-27
2023/09/13 13:39:57;;;;;;;3.22;1.60;;;;;;;22.52;67.64;96834.84;10413802;28;20042;-26
2023/09/13 13:44:57;;;;;;;3.90;1.77;;;;;;;22.46;68.13;96827.25;10421090;28;20033;-26
2023/09/13 13:49:58;;;;;;;4.17;2.23;;;;;;;22.46;66.92;96831.50;10420149;28;20300;-26
2023/09/13 13:54:58;;;;;;;2.20;1.80;;;;;;;22.53;68.19;96828.00;10414233;28;20334;-26
2023/09/13 14:00:00;;;;;;;2.40;1.93;;;;;;;22.55;67.90;96823.75;10415583;28;20037;-26
2023/09/13 14:05:00;;;;;;;1.95;1.77;;;;;;;22.50;67.78;96820.41;10425193;28;20488;-26
2023/09/13 14:10:01;;;;;;;1.75;1.52;;;;;;;22.45;68.24;96812.81;10412267;28;20033;-26
2023/09/13 14:15:01;;;;;;;2.10;1.70;;;;;;;22.49;65.95;96811.91;10425263;28;20037;-26
2023/09/13 14:20:02;;;;;;;1.60;1.38;;;;;;;22.55;67.61;96816.09;10420258;28;20044;-26
2023/09/13 14:25:04;;;;;;;4.38;2.50;;;;;;;22.55;67.46;96809.25;10420364;28;20041;-26
2023/09/13 14:30:05;;;;;;;1.83;1.70;;;;;;;22.51;66.36;96817.00;10421871;28;20406;-26
2023/09/13 14:35:06;;;;;;;1.85;1.40;;;;;;;22.49;65.42;96803.41;10426433;28;20040;-26
2023/09/13 14:40:07;;;;;;;3.30;1.58;;;;;;;22.52;66.44;96801.66;10410205;28;20044;-27
2023/09/13 14:45:08;;;;;;;3.30;1.75;;;;;;;22.51;64.79;96812.75;10411022;28;20063;-26
2023/09/13 14:50:08;;;;;;;2.15;1.67;;;;;;;22.51;64.52;96817.84;10422745;28;20075;-26
2023/09/13 14:55:11;;;;;;;1.70;1.60;;;;;;;22.49;64.34;96814.44;10419658;28;20037;-26
2023/09/13 15:00:12;;;;;;;1.40;1.13;;;;;;;22.48;64.33;96817.88;10415166;28;20016;-26
2023/09/13 15:05:12;;;;;;;2.25;1.70;;;;;;;22.43;64.49;96813.69;10420850;28;20029;-26
2023/09/13 15:10:13;;;;;;;1.55;1.40;;;;;;;22.48;64.13;96822.16;10411302;28;20487;-27
2023/09/13 15:15:13;;;;;;;1.67;1.58;;;;;;;22.47;64.12;96825.56;10410840;28;20483;-26
2023/09/13 15:20:13;;;;;;;1.57;1.47;;;;;;;22.46;63.88;96837.47;10415873;28;20429;-27
2023/09/13 15:25:14;;;;;;;1.60;1.50;;;;;;;22.45;63.92;96838.34;10410337;28;20044;-26
2023/09/13 15:30:15;;;;;;;2.65;1.50;;;;;;;22.49;63.91;96839.13;10420641;28;20116;-26
2023/09/13 15:35:15;;;;;;;1.67;1.42;;;;;;;22.48;63.72;96852.75;10422294;28;20487;-27
2023/09/13 15:40:15;;;;;;;2.63;1.50;;;;;;;22.34;63.48;96849.50;10409358;28;20059;-25
2023/09/13 15:45:16;;;;;;;1.77;1.27;;;;;;;22.41;63.55;96841.78;10416223;28;20034;-26
2023/09/13 15:50:16;;;;;;;1.58;1.33;;;;;;;22.37;63.46;96852.00;10418512;28;20038;-26
2023/09/13 15:55:16;;;;;;;1.53;1.27;;;;;;;22.42;63.34;96852.84;10425927;28;20538;-26
2023/09/13 16:00:17;;;;;;;1.83;1.30;;;;;;;22.42;63.38;96852.84;10409291;28;20099;-26
2023/09/13 16:05:17;;;;;;;2.20;1.42;;;;;;;22.41;64.36;96858.81;10424008;28;20029;-26
2023/09/13 16:10:22;;;;;;;16.23;2.37;;;;;;;22.26;64.91;96874.28;10416061;28;20055;-26
2023/09/13 16:15:23;;;;;;;2.40;1.52;;;;;;;22.38;63.77;96869.84;10413008;28;20367;-26
2023/09/13 16:20:24;;;;;;;3.03;1.50;;;;;;;22.42;63.66;96871.56;10408459;28;20082;-26
2023/09/13 16:25:24;;;;;;;4.20;2.10;;;;;;;22.44;63.45;96871.50;10412224;28;20522;-26
2023/09/13 16:30:24;;;;;;;3.93;1.60;;;;;;;22.42;63.38;96863.91;10413373;28;20108;-26
2023/09/13 16:35:25;;;;;;;2.70;1.60;;;;;;;22.43;63.33;96870.69;10417888;28;20048;-26
2023/09/13 16:40:25;;;;;;;1.87;1.40;;;;;;;22.43;63.25;96868.13;10421518;28;20036;-25
2023/09/13 16:45:26;;;;;;;2.77;1.50;;;;;;;22.41;63.39;96872.38;10414203;28;20061;-27
2023/09/13 16:50:27;;;;;;;9.65;2.13;;;;;;;22.36;63.92;96869.03;10423360;28;20034;-26
2023/09/13 16:55:27;;;;;;;2.78;1.45;;;;;;;22.40;63.31;96875.78;10412408;28;20026;-26
2023/09/13 17:00:28;;;;;;;1.77;1.23;;;;;;;22.42;63.14;96874.09;10407797;28;20041;-27
2023/09/13 17:05:28;;;;;;;1.43;1.33;;;;;;;22.42;63.17;96868.16;10414646;28;20065;-26
2023/09/13 17:10:30;;;;;;;1.37;1.27;;;;;;;22.42;63.08;96878.34;10421151;28;20095;-26
2023/09/13 17:15:30;;;;;;;2.63;1.70;;;;;;;22.42;63.16;96883.44;10417025;28;20057;-26
2023/09/13 17:20:31;;;;;;;1.77;1.53;;;;;;;22.42;63.24;96899.63;10421664;28;20499;-26
2023/09/13 17:25:35;;;;;;;1.42;1.23;;;;;;;22.42;62.93;96902.16;10412134;28;20114;-26
2023/09/13 17:30:36;;;;;;;2.55;1.45;;;;;;;22.40;63.11;96895.38;10416728;28;20068;-26
2023/09/13 17:35:36;;;;;;;1.10;1.00;;;;;;;22.40;63.54;96903.84;10422330;28;20037;-27
2023/09/13 17:40:37;;;;;;;4.33;1.73;;;;;;;22.43;63.65;96913.22;10424815;28;20547;-26
2023/09/13 17:45:38;;;;;;;2.22;1.60;;;;;;;22.43;63.03;96916.63;10426676;28;20300;-26
2023/09/13 17:50:38;;;;;;;3.08;1.45;;;;;;;22.43;62.92;96921.72;10414909;28;20042;-27
2023/09/13 17:55:39;;;;;;;3.28;1.67;;;;;;;22.42;63.01;96927.69;10418126;28;20099;-27
2023/09/13 18:00:39;;;;;;;2.17;1.93;;;;;;;22.40;63.03;96926.81;10423026;28;20041;-26
2023/09/13 18:05:40;;;;;;;7.47;1.60;;;;;;;22.43;63.71;96937.03;10422938;28;20211;-26
2023/09/13 18:10:40;;;;;;;4.53;1.80;;;;;;;22.42;62.95;96930.25;10412260;28;20957;-25
2023/09/13 18:15:40;;;;;;;1.47;1.37;;;;;;;22.43;63.24;96947.22;10422252;28;20041;-26
2023/09/13 18:20:41;;;;;;;4.43;1.47;;;;;;;22.42;63.00;96948.09;10425742;28;20386;-24
2023/09/13 18:25:41;;;;;;;2.43;1.30;;;;;;;22.42;62.83;96955.75;10427873;28;20037;-26
2023/09/13 18:30:41;;;;;;;2.27;1.03;;;;;;;22.43;62.90;96960.00;10426786;28;20038;-27
2023/09/13 18:35:42;;;;;;;1.23;1.13;;;;;;;22.46;62.74;96954.84;10431010;28;20030;-27
2023/09/13 18:40:42;;;;;;;0.80;0.80;;;;;;;22.48;62.76;96963.31;10429621;28;20033;-27
2023/09/13 18:45:43;;;;;;;4.10;1.20;;;;;;;22.50;62.36;96961.56;10427132;28;20033;-28
2023/09/13 18:50:52;;;;;;;1.95;1.20;;;;;;;22.51;62.22;96970.97;10423328;28;20395;-26
2023/09/13 18:55:55;;;;;;;3.50;1.10;;;;;;;22.41;62.42;96948.94;10425600;28;20025;-27
2023/09/13 19:00:57;;;;;;;1.58;1.10;;;;;;;22.51;62.47;96976.06;10426750;28;20032;-26
2023/09/13 19:06:01;;;;;;;1.55;1.08;;;;;;;22.53;62.49;96983.66;10413137;28;20464;-26
2023/09/13 19:11:06;;;;;;;2.05;1.00;;;;;;;22.55;62.45;96987.91;10410153;28;20037;-26
2023/09/13 19:16:09;;;;;;;1.15;0.90;;;;;;;22.59;62.37;96984.47;10426896;28;20045;-26
2023/09/13 19:21:17;;;;;;;1.30;0.65;;;;;;;22.60;62.30;97000.59;10424955;28;20021;-26
2023/09/13 19:26:18;;;;;;;1.55;1.08;;;;;;;22.58;62.36;96999.78;10429148;28;20483;-26
2023/09/13 19:31:19;;;;;;;1.83;1.10;;;;;;;22.59;62.15;97004.88;10425802;28;20041;-27
2023/09/13 19:36:20;;;;;;;1.10;1.00;;;;;;;22.60;62.25;97010.81;10411106;28;20029;-26
2023/09/13 19:41:20;;;;;;;1.87;1.00;;;;;;;22.63;62.15;97006.53;10416276;28;20488;-26
2023/09/13 19:46:20;;;;;;;1.60;1.10;;;;;;;22.63;62.00;97010.78;10416214;28;20041;-26
2023/09/13 19:51:21;;;;;;;1.20;0.90;;;;;;;22.55;62.72;97010.88;10414985;28;20052;-26
2023/09/13 19:56:21;;;;;;;1.00;0.90;;;;;;;22.57;62.38;97015.97;10424189;28;20427;-26
2023/09/13 20:01:25;;;;;;;1.53;0.90;;;;;;;22.58;62.31;97023.59;10419949;28;20092;-26
2023/09/13 20:06:27;;;;;;;2.08;1.45;;;;;;;22.56;62.17;97020.22;10425776;28;20119;-26
2023/09/13 20:11:28;;;;;;;1.13;0.93;;;;;;;22.55;62.31;97027.91;10411199;28;20037;-26
2023/09/13 20:16:29;;;;;;;1.25;0.75;;;;;;;22.55;62.21;97031.28;10412156;28;20492;-26
2023/09/13 20:21:29;;;;;;;2.27;0.90;;;;;;;22.55;62.22;97031.28;10416729;28;20029;-27
2023/09/13 20:26:30;;;;;;;2.63;1.37;;;;;;;22.54;62.15;97034.72;10409409;28;20037;-26
2023/09/13 20:31:31;;;;;;;6.70;1.17;;;;;;;22.53;62.21;97043.22;10420484;28;20336;-26
2023/09/13 20:36:31;;;;;;;2.07;0.90;;;;;;;22.52;62.34;97044.09;10418078;28;20600;-26
2023/09/13 20:41:32;;;;;;;1.35;0.93;;;;;;;22.53;62.29;97050.03;10407654;28;20284;-27
2023/09/13 20:46:33;;;;;;;4.68;0.90;;;;;;;22.51;62.18;97057.72;10407951;28;20033;-26
2023/09/13 20:51:35;;;;;;;3.50;1.23;;;;;;;22.50;62.32;97053.44;10418562;28;20037;-26
2023/09/13 20:56:35;;;;;;;1.17;0.90;;;;;;;22.49;62.31;97059.41;10418292;28;20060;-26
2023/09/13 21:01:36;;;;;;;1.00;0.90;;;;;;;22.48;62.21;97062.84;10422363;28;20021;-26
2023/09/13 21:06:36;;;;;;;1.03;0.93;;;;;;;22.48;62.24;97067.94;10418304;28;20293;-26
2023/09/13 21:11:37;;;;;;;2.67;0.80;;;;;;;22.46;62.12;97072.22;10419509;28;20033;-26
2023/09/13 21:16:38;;;;;;;1.08;0.85;;;;;;;22.46;62.12;97073.91;10414778;28;20292;-27
2023/09/13 21:21:39;;;;;;;0.60;0.60;;;;;;;22.45;62.34;97075.63;10415104;28;20036;-26
2023/09/13 21:26:39;;;;;;;1.58;0.98;;;;;;;22.45;62.17;97077.31;10417789;28;20025;-26
2023/09/13 21:31:40;;;;;;;0.88;0.70;;;;;;;22.43;62.21;97069.72;10418563;28;20044;-27
2023/09/13 21:36:40;;;;;;;1.23;0.80;;;;;;;22.43;62.19;97068.84;10430327;28;20033;-26
2023/09/13 21:41:41;;;;;;;0.63;0.63;;;;;;;22.42;62.07;97062.91;10424657;28;20053;-26
2023/09/13 21:46:41;;;;;;;1.57;0.67;;;;;;;22.42;62.25;97073.13;10430568;28;20442;-26
2023/09/13 21:51:41;;;;;;;1.10;1.00;;;;;;;22.41;62.16;97076.50;10419962;28;20296;-26
2023/09/13 21:56:42;;;;;;;2.60;0.80;;;;;;;22.42;62.26;97082.47;10413186;28;20036;-26
2023/09/13 22:01:42;;;;;;;1.07;0.90;;;;;;;22.41;62.16;97081.59;10419730;28;20033;-26
2023/09/13 22:06:43;;;;;;;1.23;0.88;;;;;;;22.40;62.17;97091.81;10420013;28;20040;-26
2023/09/13 22:11:43;;;;;;;1.95;0.80;;;;;;;22.40;62.16;97085.00;10417095;28;20033;-26
2023/09/13 22:16:43;;;;;;;1.30;0.73;;;;;;;22.40;62.09;97074.78;10422738;28;20483;-26
2023/09/13 22:21:44;;;;;;;0.87;0.80;;;;;;;22.40;62.09;97072.25;10414238;28;20025;-26
2023/09/13 22:26:44;;;;;;;0.67;0.67;;;;;;;22.39;62.18;97080.75;10421605;28;20116;-26
2023/09/13 22:31:44;;;;;;;1.70;0.60;;;;;;;22.39;62.07;97077.38;10422273;28;20396;-26
2023/09/13 22:36:45;;;;;;;0.83;0.83;;;;;;;22.39;62.11;97087.59;10432112;28;20470;-26
2023/09/13 22:41:45;;;;;;;0.80;0.80;;;;;;;22.39;62.04;97082.47;10411722;28;20033;-27
2023/09/13 22:46:46;;;;;;;1.07;0.50;;;;;;;22.38;62.04;97086.72;10413611;28;20061;-26
2023/09/13 22:51:48;;;;;;;0.90;0.90;;;;;;;22.37;62.02;97079.94;10421152;28;20339;-26
2023/09/13 22:56:49;;;;;;;0.85;0.85;;;;;;;22.38;61.93;97083.31;10410824;28;20282;-26
2023/09/13 23:01:50;;;;;;;0.77;0.75;;;;;;;22.37;61.87;97085.03;10432818;28;20032;-26
2023/09/13 23:06:51;;;;;;;0.65;0.65;;;;;;;22.37;61.96;97084.19;10428047;28;20446;-27
2023/09/13 23:11:51;;;;;;;0.73;0.68;;;;;;;22.36;61.91;97077.38;10409582;28;20044;-26
2023/09/13 23:16:53;;;;;;;1.47;0.80;;;;;;;22.37;61.91;97086.72;10413417;28;20035;-27
2023/09/13 23:21:53;;;;;;;1.50;0.70;;;;;;;22.36;61.91;97083.34;10420405;28;20657;-26